Terminal Aerodrome Forecast
Issued by NWS

Current Version | Previous Version | Text Only | Print | Product List | Glossary On
Versions: 1 2 3 4 5 6 7 8 9 10 11 12 13 14
645
FTUS41 KLWX 241129
TAFMTN
TAF
KMTN 241129Z 2412/2512 09008KT P6SM OVC050
     FM241600 09008G16KT P6SM VCSH SCT025 OVC050
     FM241900 09008G16KT 6SM -RA BKN025 OVC050
     FM242100 09012G20KT 3SM RA SCT008 BKN015 OVC050
     FM250300 07008KT 3SM -RA BR BKN008 OVC015
     FM250900 VRB04KT 3SM -RA BR BKN008 OVC015=

USA.gov is the U.S. government's official web portal to all federal, state and local government web resources and services.